Time;durP1;ratioP1;P1;durP2;ratioP2;P2;SDS_P1;SDS_P2;PMS_P1;PMS_P2;Temp;Humidity;BMP_temperature;BMP_pressure;BME280_temperature;BME280_humidity;BME280_pressure;Samples;Min_cycle;Max_cycle;Signal;HPM_P1;HPM_P2
2021/03/27 00:02:22;;;;;;;;;;;;;;;18.67;65.33;101719.03;5085800;28;1625;-69
2021/03/27 00:05:09;;;;;;;;;;;;;;;18.64;65.46;101721.78;5088117;28;991;-68
2021/03/27 00:07:41;;;;;;;;;;;;;;;18.65;65.42;101714.72;5087413;28;1378;-68
2021/03/27 00:10:24;;;;;;;;;;;;;;;18.62;65.54;101721.00;5080697;28;1838;-68
2021/03/27 00:12:53;;;;;;;;;;;;;;;18.61;65.64;101714.00;5107854;28;1905;-67
2021/03/27 00:15:20;;;;;;;;;;;;;;;18.60;65.73;101707.03;5107655;28;912;-68
2021/03/27 00:17:49;;;;;;;;;;;;;;;18.60;65.64;101701.75;5106533;28;1275;-68
2021/03/27 00:20:22;;;;;;;;;;;;;;;18.59;65.72;101710.56;5090779;28;1103;-68
2021/03/27 00:22:59;;;;;;;;;;;;;;;18.57;65.77;101707.16;5112081;28;1216;-68
2021/03/27 00:25:25;;;;;;;;;;;;;;;18.58;65.79;101711.47;5112199;28;1099;-69
2021/03/27 00:28:08;;;;;;;;;;;;;;;18.58;65.92;101714.13;5072694;28;1830;-68
2021/03/27 00:30:42;;;;;;;;;;;;;;;18.56;65.77;101705.41;5089993;28;845;-68
2021/03/27 00:33:09;;;;;;;;;;;;;;;18.56;65.88;101713.34;5072842;28;1914;-69
2021/03/27 00:35:41;;;;;;;;;;;;;;;18.55;65.79;101711.59;5091524;28;775;-68
2021/03/27 00:38:11;;;;;;;;;;;;;;;18.55;65.80;101714.25;5091180;28;1264;-68
2021/03/27 00:40:44;;;;;;;;;;;;;;;18.54;65.87;101717.81;5091358;28;767;-69
2021/03/27 00:43:15;;;;;;;;;;;;;;;18.54;65.80;101723.94;5091420;28;1275;-68
2021/03/27 00:45:46;;;;;;;;;;;;;;;18.54;65.82;101721.28;5072743;28;1360;-69
2021/03/27 00:48:15;;;;;;;;;;;;;;;18.52;65.90;101717.88;5091194;28;1101;-68
2021/03/27 00:50:46;;;;;;;;;;;;;;;18.52;65.79;101720.50;5092887;28;1669;-68
2021/03/27 00:53:18;;;;;;;;;;;;;;;18.52;65.90;101732.84;5104319;28;1967;-68
2021/03/27 00:55:49;;;;;;;;;;;;;;;18.52;66.05;101730.19;5107135;28;1087;-68
2021/03/27 00:58:21;;;;;;;;;;;;;;;18.50;66.04;101735.56;5102824;28;936;-69
2021/03/27 01:00:49;;;;;;;;;;;;;;;18.50;66.15;101742.59;5078983;27;1439;-67
2021/03/27 01:03:35;;;;;;;;;;;;;;;18.49;65.96;101743.50;5111227;28;1045;-68
2021/03/27 01:06:05;;;;;;;;;;;;;;;18.49;66.00;101736.47;5093346;28;1318;-68
2021/03/27 01:08:32;;;;;;;;;;;;;;;18.48;65.95;101744.44;5093636;28;975;-68
2021/03/27 01:11:00;;;;;;;;;;;;;;;18.47;65.95;101729.50;5075659;28;1364;-69
2021/03/27 01:13:34;;;;;;;;;;;;;;;18.47;65.82;101727.72;5112605;28;1972;-69
2021/03/27 01:16:02;;;;;;;;;;;;;;;18.48;65.98;101739.16;5112326;28;1398;-68
2021/03/27 01:18:37;;;;;;;;;;;;;;;18.47;65.75;101747.97;5112251;28;1048;-68
2021/03/27 01:21:06;;;;;;;;;;;;;;;18.46;65.99;101749.75;5108212;28;1339;-68
2021/03/27 01:23:32;;;;;;;;;;;;;;;18.47;65.90;101747.97;5091824;28;1051;-69
2021/03/27 01:26:02;;;;;;;;;;;;;;;18.46;65.98;101740.97;5091857;28;1236;-68
2021/03/27 01:28:48;;;;;;;;;;;;;;;18.46;65.97;101744.47;5090960;28;1041;-68
2021/03/27 01:31:17;;;;;;;;;;;;;;;18.45;66.15;101744.56;5091114;28;1266;-68
2021/03/27 01:33:58;;;;;;;;;;;;;;;18.45;65.91;101741.91;5091585;28;1906;-67
2021/03/27 01:36:31;;;;;;;;;;;;;;;18.45;66.06;101744.56;5056439;28;1338;-68
2021/03/27 01:39:02;;;;;;;;;;;;;;;18.44;66.11;101753.38;5091580;28;1103;-68
2021/03/27 01:41:28;;;;;;;;;;;;;;;18.45;66.06;101757.75;5091488;28;1205;-68
2021/03/27 01:44:06;;;;;;;;;;;;;;;18.44;66.00;101758.66;5091712;28;1190;-66
2021/03/27 01:46:36;;;;;;;;;;;;;;;18.44;66.06;101766.56;5091269;28;1234;-68
2021/03/27 01:49:20;;;;;;;;;;;;;;;18.42;66.05;101750.78;5091356;28;1163;-67
2021/03/27 01:51:58;;;;;;;;;;;;;;;18.43;66.03;101754.28;5091239;28;1353;-68
2021/03/27 01:54:27;;;;;;;;;;;;;;;18.42;66.13;101755.22;5073060;28;1906;-67
2021/03/27 01:56:56;;;;;;;;;;;;;;;18.42;66.13;101756.06;5091090;28;1236;-67
2021/03/27 01:59:22;;;;;;;;;;;;;;;18.41;66.18;101748.22;5073074;28;1263;-67
2021/03/27 02:01:48;;;;;;;;;;;;;;;18.42;66.15;101752.59;5091077;28;1240;-67
2021/03/27 02:04:27;;;;;;;;;;;;;;;18.41;66.29;101748.22;5091514;28;923;-67
2021/03/27 02:07:06;;;;;;;;;;;;;;;18.40;66.22;101741.22;5072390;28;1754;-68
2021/03/27 02:09:44;;;;;;;;;;;;;;;18.40;66.17;101736.81;5072545;28;1241;-67
2021/03/27 02:12:11;;;;;;;;;;;;;;;18.40;66.21;101742.06;5072308;28;1317;-67
2021/03/27 02:15:06;;;;;;;;;;;;;;;18.40;66.23;101743.84;5090753;28;1975;-67
2021/03/27 02:17:43;;;;;;;;;;;;;;;18.39;66.37;101744.78;5035037;28;1237;-68
2021/03/27 02:20:22;;;;;;;;;;;;;;;18.39;66.42;101742.16;5090691;28;777;-67
2021/03/27 02:22:51;;;;;;;;;;;;;;;18.38;66.45;101748.34;5090664;28;1325;-67
2021/03/27 02:25:42;;;;;;;;;;;;;;;18.39;66.53;101744.78;5091328;28;1063;-65
2021/03/27 02:28:09;;;;;;;;;;;;;;;18.38;66.43;101743.94;5090989;28;1390;-66
2021/03/27 02:30:44;;;;;;;;;;;;;;;18.38;66.46;101740.44;5073315;28;770;-67
2021/03/27 02:33:16;;;;;;;;;;;;;;;18.38;66.42;101741.28;5071753;28;1905;-67
2021/03/27 02:35:49;;;;;;;;;;;;;;;18.38;66.46;101746.56;5089269;28;841;-67
2021/03/27 02:38:27;;;;;;;;;;;;;;;18.38;66.51;101743.06;5090528;28;909;-67
2021/03/27 02:40:58;;;;;;;;;;;;;;;18.37;66.40;101742.19;5089956;28;1318;-66
2021/03/27 02:43:27;;;;;;;;;;;;;;;18.37;66.52;101736.94;5089017;28;1430;-67
2021/03/27 02:45:59;;;;;;;;;;;;;;;18.37;66.49;101749.25;5090197;28;1302;-67
2021/03/27 02:48:48;;;;;;;;;;;;;;;18.36;66.48;101751.03;5089903;28;1063;-67
2021/03/27 02:51:31;;;;;;;;;;;;;;;18.36;66.50;101751.03;5089725;28;1195;-66
2021/03/27 02:54:19;;;;;;;;;;;;;;;18.35;66.45;101745.81;5071406;28;1910;-66
2021/03/27 02:57:04;;;;;;;;;;;;;;;18.35;66.39;101745.81;5089543;28;1236;-67
2021/03/27 02:59:31;;;;;;;;;;;;;;;18.34;66.59;101747.59;5090091;28;1317;-67
2021/03/27 03:01:57;;;;;;;;;;;;;;;18.35;66.51;101751.09;5089910;28;1245;-67
2021/03/27 03:04:41;;;;;;;;;;;;;;;18.35;66.46;101749.31;5089847;28;1153;-67
2021/03/27 03:07:13;;;;;;;;;;;;;;;18.33;66.61;101747.69;5089754;28;1258;-68
2021/03/27 03:09:49;;;;;;;;;;;;;;;18.34;66.44;101741.47;5089537;28;990;-68
2021/03/27 03:12:21;;;;;;;;;;;;;;;18.33;66.51;101745.03;5089406;28;1287;-67
2021/03/27 03:14:56;;;;;;;;;;;;;;;18.33;66.54;101745.88;5089337;28;1926;-67
2021/03/27 03:17:42;;;;;;;;;;;;;;;18.34;66.51;101746.72;5070987;28;1417;-67
2021/03/27 03:20:29;;;;;;;;;;;;;;;18.33;66.71;101755.59;5089142;28;770;-67
2021/03/27 03:23:11;;;;;;;;;;;;;;;18.32;66.64;101754.72;5078008;28;1339;-67
2021/03/27 03:25:53;;;;;;;;;;;;;;;18.31;66.64;101747.72;5089138;28;826;-66
2021/03/27 03:28:38;;;;;;;;;;;;;;;18.31;66.47;101749.50;5053801;28;1078;-67
2021/03/27 03:31:14;;;;;;;;;;;;;;;18.31;66.57;101747.72;5088787;28;1230;-66
2021/03/27 03:33:49;;;;;;;;;;;;;;;18.31;66.60;101746.84;5089437;28;1902;-68
2021/03/27 03:36:31;;;;;;;;;;;;;;;18.31;66.47;101749.50;5071036;28;1244;-68
2021/03/27 03:39:08;;;;;;;;;;;;;;;18.31;66.47;101750.34;5089252;28;1033;-68
2021/03/27 03:41:34;;;;;;;;;;;;;;;18.30;66.55;101753.06;5089036;28;1247;-68
2021/03/27 03:44:13;;;;;;;;;;;;;;;18.30;66.43;101750.44;5089254;28;1172;-68
2021/03/27 03:46:55;;;;;;;;;;;;;;;18.30;66.47;101750.44;5089388;28;1354;-68
2021/03/27 03:49:40;;;;;;;;;;;;;;;18.29;66.62;101753.97;5089276;28;1264;-67
2021/03/27 03:52:33;;;;;;;;;;;;;;;18.29;66.58;101760.13;5088713;28;1551;-68
2021/03/27 03:55:05;;;;;;;;;;;;;;;18.29;66.55;101756.63;5068184;28;1986;-67
2021/03/27 03:57:31;;;;;;;;;;;;;;;18.29;66.66;101769.81;5088892;28;1230;-66
2021/03/27 04:00:04;;;;;;;;;;;;;;;18.28;66.64;101762.81;5088889;28;786;-67
2021/03/27 04:02:34;;;;;;;;;;;;;;;18.28;66.47;101765.44;5070592;28;1372;-66
2021/03/27 04:05:00;;;;;;;;;;;;;;;18.27;66.47;101761.09;5088840;28;952;-66
2021/03/27 04:07:32;;;;;;;;;;;;;;;18.27;66.52;101769.84;5070631;28;1331;-68
2021/03/27 04:10:02;;;;;;;;;;;;;;;18.27;66.51;101766.38;5088711;28;825;-66
2021/03/27 04:12:46;;;;;;;;;;;;;;;18.27;66.46;101769.00;5070624;28;1413;-66
2021/03/27 04:15:31;;;;;;;;;;;;;;;18.27;66.47;101769.00;5088530;28;806;-66
2021/03/27 04:17:58;;;;;;;;;;;;;;;18.26;66.41;101768.16;5088661;28;1303;-67
2021/03/27 04:20:49;;;;;;;;;;;;;;;18.26;66.58;101772.56;5088805;28;1083;-67
2021/03/27 04:23:18;;;;;;;;;;;;;;;18.26;66.58;101777.84;5088802;28;908;-67
2021/03/27 04:25:54;;;;;;;;;;;;;;;18.25;66.42;101776.97;5088620;28;814;-67
2021/03/27 04:28:34;;;;;;;;;;;;;;;18.25;66.45;101774.34;5088873;28;1048;-68
2021/03/27 04:31:00;;;;;;;;;;;;;;;18.25;66.45;101787.53;5070050;28;1412;-67
2021/03/27 04:33:45;;;;;;;;;;;;;;;18.26;66.34;101785.75;5088457;28;1933;-67
2021/03/27 04:36:31;;;;;;;;;;;;;;;18.25;66.27;101784.88;5070119;28;1248;-66
2021/03/27 04:38:58;;;;;;;;;;;;;;;18.25;66.21;101791.94;5088584;28;1406;-67
2021/03/27 04:41:40;;;;;;;;;;;;;;;18.24;66.42;101796.34;5088546;28;1331;-66
2021/03/27 04:44:12;;;;;;;;;;;;;;;18.24;66.36;101800.78;5069800;28;1051;-66
2021/03/27 04:46:46;;;;;;;;;;;;;;;18.23;66.29;101805.19;5088184;28;1252;-67
2021/03/27 04:49:24;;;;;;;;;;;;;;;18.24;66.34;101803.41;5070080;28;1269;-68
2021/03/27 04:51:50;;;;;;;;;;;;;;;18.23;66.37;101807.84;5086905;28;1718;-68
2021/03/27 04:54:28;;;;;;;;;;;;;;;18.24;66.21;101808.69;5088713;28;1910;-67
2021/03/27 04:57:10;;;;;;;;;;;;;;;18.24;66.10;101811.34;5088538;28;1348;-66
2021/03/27 04:59:48;;;;;;;;;;;;;;;18.22;66.19;101814.00;5089073;28;1046;-66
2021/03/27 05:02:20;;;;;;;;;;;;;;;18.23;66.19;101817.50;5069858;28;1360;-67
2021/03/27 05:05:06;;;;;;;;;;;;;;;18.22;66.36;101823.69;5088398;28;786;-67
2021/03/27 05:07:32;;;;;;;;;;;;;;;18.22;66.17;101810.50;5089990;28;1299;-68
2021/03/27 05:10:04;;;;;;;;;;;;;;;18.22;66.16;101823.69;5091840;28;800;-68
2021/03/27 05:12:51;;;;;;;;;;;;;;;18.21;66.19;101822.00;5092064;28;1220;-69
2021/03/27 05:15:43;;;;;;;;;;;;;;;18.20;66.28;101823.78;5081274;28;1378;-68
2021/03/27 05:18:39;;;;;;;;;;;;;;;18.21;66.18;101830.75;5090212;28;1356;-68
2021/03/27 05:21:38;;;;;;;;;;;;;;;18.21;66.14;101832.53;5069230;28;1365;-68
2021/03/27 05:24:21;;;;;;;;;;;;;;;18.21;66.20;101835.19;5091521;28;1527;-68
2021/03/27 05:26:47;;;;;;;;;;;;;;;18.20;66.22;101834.31;5091575;28;1274;-68
2021/03/27 05:29:19;;;;;;;;;;;;;;;18.20;66.21;101836.97;5091369;28;1211;-68
2021/03/27 05:31:51;;;;;;;;;;;;;;;18.19;66.09;101840.50;5091180;28;1230;-69
2021/03/27 05:34:27;;;;;;;;;;;;;;;18.20;66.08;101838.72;5091720;28;2001;-68
2021/03/27 05:37:19;;;;;;;;;;;;;;;18.21;65.99;101851.00;5091205;28;1330;-68
2021/03/27 05:39:48;;;;;;;;;;;;;;;18.20;66.03;101850.16;5073401;28;735;-68
2021/03/27 05:42:29;;;;;;;;;;;;;;;18.20;66.04;101851.91;5091425;28;1323;-68
2021/03/27 05:44:55;;;;;;;;;;;;;;;18.20;65.91;101854.56;5091184;28;940;-68
2021/03/27 05:47:40;;;;;;;;;;;;;;;18.19;66.05;101866.00;5091187;28;1244;-68
2021/03/27 05:50:22;;;;;;;;;;;;;;;18.19;66.02;101868.66;5091212;28;727;-68
2021/03/27 05:52:48;;;;;;;;;;;;;;;18.19;66.02;101872.16;5091191;28;1381;-68
2021/03/27 05:55:34;;;;;;;;;;;;;;;18.18;65.84;101873.06;5072506;28;1934;-68
2021/03/27 05:58:07;;;;;;;;;;;;;;;18.19;66.07;101873.91;5072755;28;1435;-68
2021/03/27 06:00:52;;;;;;;;;;;;;;;18.19;65.98;101876.56;5056391;28;1168;-68
2021/03/27 06:03:32;;;;;;;;;;;;;;;18.18;65.85;101880.97;5091192;28;956;-69
2021/03/27 06:05:58;;;;;;;;;;;;;;;18.18;65.91;101885.41;5090734;28;1232;-69
2021/03/27 06:08:43;;;;;;;;;;;;;;;18.17;65.87;101887.19;5072218;28;1336;-68
2021/03/27 06:11:28;;;;;;;;;;;;;;;18.17;65.64;101897.72;5089296;28;1316;-68
2021/03/27 06:14:12;;;;;;;;;;;;;;;18.17;65.79;101895.09;5090979;28;1910;-68
2021/03/27 06:16:57;;;;;;;;;;;;;;;18.16;65.58;101903.91;5090660;28;1287;-68
2021/03/27 06:19:29;;;;;;;;;;;;;;;18.15;65.72;101904.81;5090845;28;1226;-67
2021/03/27 06:22:20;;;;;;;;;;;;;;;18.17;65.65;101915.31;5090998;28;1542;-66
2021/03/27 06:25:15;;;;;;;;;;;;;;;18.17;65.75;101920.59;5090310;28;1234;-68
2021/03/27 06:27:42;;;;;;;;;;;;;;;18.16;65.76;101910.94;5077460;28;1256;-67
2021/03/27 06:30:14;;;;;;;;;;;;;;;18.17;65.44;101923.22;5089700;28;1075;-68
2021/03/27 06:33:00;;;;;;;;;;;;;;;18.14;65.77;101918.94;5098444;28;1977;-68
2021/03/27 06:35:45;;;;;;;;;;;;;;;18.15;65.57;101918.00;5092176;28;910;-68
2021/03/27 06:38:11;;;;;;;;;;;;;;;18.15;65.56;101923.28;5091875;28;1128;-68
2021/03/27 06:40:56;;;;;;;;;;;;;;;18.15;65.49;101936.47;5110419;28;1091;-68
2021/03/27 06:43:25;;;;;;;;;;;;;;;18.15;65.56;101930.34;5110257;28;1192;-68
2021/03/27 06:46:01;;;;;;;;;;;;;;;18.15;65.58;101935.63;5091916;28;1325;-67
2021/03/27 06:48:37;;;;;;;;;;;;;;;18.15;65.72;101947.00;5092323;28;1248;-68
2021/03/27 06:51:19;;;;;;;;;;;;;;;18.15;65.67;101952.28;5092024;28;1570;-68
2021/03/27 06:54:14;;;;;;;;;;;;;;;18.25;65.64;101958.97;5110358;28;1913;-67
2021/03/27 06:57:00;;;;;;;;;;;;;;;18.21;65.55;101962.63;5064680;28;1347;-67
2021/03/27 06:59:26;;;;;;;;;;;;;;;18.18;65.55;101962.72;5109711;28;1331;-67
2021/03/27 07:01:53;;;;;;;;;;;;;;;18.17;65.56;101971.56;5109037;28;1319;-68
2021/03/27 07:04:26;;;;;;;;;;;;;;;18.17;65.46;101965.44;5090729;28;1094;-68
2021/03/27 07:07:11;;;;;;;;;;;;;;;18.18;65.53;101970.63;5109108;28;1241;-68
2021/03/27 07:09:57;;;;;;;;;;;;;;;18.16;65.49;101975.09;5109617;28;934;-68
2021/03/27 07:12:26;;;;;;;;;;;;;;;18.18;65.34;101977.72;5109167;28;1319;-67
2021/03/27 07:15:02;;;;;;;;;;;;;;;18.18;65.35;101983.00;5108759;28;1909;-68
2021/03/27 07:17:49;;;;;;;;;;;;;;;18.22;65.42;101979.31;5108692;28;1247;-69
2021/03/27 07:20:34;;;;;;;;;;;;;;;18.20;65.19;101992.56;5108875;28;1213;-69
2021/03/27 07:23:16;;;;;;;;;;;;;;;18.19;65.46;101987.31;5108673;28;1216;-68
2021/03/27 07:25:46;;;;;;;;;;;;;;;18.20;65.44;101996.97;5108648;28;786;-68
2021/03/27 07:28:15;;;;;;;;;;;;;;;18.21;65.49;102001.34;5108745;28;1058;-69
2021/03/27 07:30:45;;;;;;;;;;;;;;;18.20;65.61;102000.47;5102672;28;1597;-68
2021/03/27 07:33:37;;;;;;;;;;;;;;;18.21;65.51;102003.97;5099526;28;2004;-67
2021/03/27 07:36:05;;;;;;;;;;;;;;;18.23;65.70;102007.41;5106133;28;1269;-68
2021/03/27 07:38:44;;;;;;;;;;;;;;;18.22;65.50;102008.31;5105111;28;1058;-69
2021/03/27 07:41:29;;;;;;;;;;;;;;;18.21;65.54;102010.09;5089924;28;1204;-69
2021/03/27 07:43:58;;;;;;;;;;;;;;;18.22;65.49;102019.72;5090611;28;1018;-68
2021/03/27 07:46:28;;;;;;;;;;;;;;;18.22;65.60;102021.50;5107230;28;1243;-68
2021/03/27 07:49:18;;;;;;;;;;;;;;;18.23;65.56;102024.09;5107589;28;942;-67
2021/03/27 07:51:48;;;;;;;;;;;;;;;18.23;65.44;102031.16;5104461;28;1525;-67
2021/03/27 07:54:14;;;;;;;;;;;;;;;18.23;66.18;102031.16;5107346;28;1981;-67
2021/03/27 07:56:43;;;;;;;;;;;;;;;18.23;66.58;102032.00;5105147;28;1376;-68
2021/03/27 07:59:39;;;;;;;;;;;;;;;18.34;66.75;102026.34;5097396;28;1129;-67
2021/03/27 08:02:08;;;;;;;;;;;;;;;18.41;66.67;102033.13;5016515;28;1340;-70
2021/03/27 08:04:41;;;;;;;;;;;;;;;18.44;66.50;102043.59;5070917;28;1384;-68
2021/03/27 08:07:23;;;;;;;;;;;;;;;18.38;66.15;102043.81;5089003;28;1241;-67
2021/03/27 08:09:58;;;;;;;;;;;;;;;18.29;65.93;102044.13;5088930;28;797;-68
2021/03/27 08:12:43;;;;;;;;;;;;;;;18.26;65.80;102060.06;5070234;28;1244;-68
2021/03/27 08:15:13;;;;;;;;;;;;;;;18.29;66.67;102054.69;5088803;28;1901;-68
2021/03/27 08:17:42;;;;;;;;;;;;;;;18.30;66.13;102056.41;5070666;28;1229;-66
2021/03/27 08:20:27;;;;;;;;;;;;;;;18.29;66.33;102059.94;5070160;28;1399;-67
2021/03/27 08:23:05;;;;;;;;;;;;;;;18.29;66.11;102065.22;5087944;28;1220;-67
2021/03/27 08:25:41;;;;;;;;;;;;;;;18.29;66.31;102071.38;5070184;28;806;-67
2021/03/27 08:28:33;;;;;;;;;;;;;;;18.28;66.32;102063.50;5069960;28;1253;-68
2021/03/27 08:31:37;;;;;;;;;;;;;;;18.28;66.65;102074.03;5088370;28;1264;-67
2021/03/27 08:34:09;;;;;;;;;;;;;;;18.21;66.29;102065.47;5006085;28;1903;-67
2021/03/27 08:36:38;;;;;;;;;;;;;;;18.28;66.41;102079.31;5005962;28;1260;-67
2021/03/27 08:39:40;;;;;;;;;;;;;;;18.27;66.23;102082.88;5049157;28;1655;-67
2021/03/27 08:42:06;;;;;;;;;;;;;;;18.39;67.01;102093.03;5072299;28;1368;-66
2021/03/27 08:44:36;;;;;;;;;;;;;;;18.38;65.99;102083.38;5091994;28;1164;-66
2021/03/27 08:47:21;;;;;;;;;;;;;;;18.31;66.06;102093.28;5073218;28;1311;-66
2021/03/27 08:49:56;;;;;;;;;;;;;;;18.39;66.15;102103.56;5072461;28;1489;-67
2021/03/27 08:52:28;;;;;;;;;;;;;;;18.33;66.18;102109.06;5090806;28;1461;-68
2021/03/27 08:54:56;;;;;;;;;;;;;;;18.39;67.13;102117.59;5091222;28;1934;-68
2021/03/27 08:57:41;;;;;;;;;;;;;;;18.39;66.34;102120.25;5072765;28;1228;-68
2021/03/27 09:00:24;;;;;;;;;;;;;;;18.36;66.62;102125.63;5072511;28;1403;-67
2021/03/27 09:02:51;;;;;;;;;;;;;;;18.37;67.96;102132.63;5091359;28;1228;-66
2021/03/27 09:05:37;;;;;;;;;;;;;;;18.46;69.23;102136.72;5091640;28;766;-69
2021/03/27 09:08:17;;;;;;;;;;;;;;;18.43;68.42;102136.84;5050442;28;1257;-67
2021/03/27 09:10:44;;;;;;;;;;;;;;;18.38;68.50;102129.09;5091394;28;840;-67
2021/03/27 09:13:29;;;;;;;;;;;;;;;18.38;68.33;102138.78;5071620;28;1338;-67
2021/03/27 09:16:14;;;;;;;;;;;;;;;18.37;68.70;102137.03;5073076;28;1236;-67
2021/03/27 09:18:59;;;;;;;;;;;;;;;18.35;69.20;102142.38;5091759;28;1191;-67
2021/03/27 09:21:32;;;;;;;;;;;;;;;18.37;69.30;102147.59;5056501;28;1245;-65
2021/03/27 09:24:37;;;;;;;;;;;;;;;18.36;69.39;102146.72;5075258;28;980;-68
2021/03/27 09:27:22;;;;;;;;;;;;;;;18.34;69.47;102145.06;5091173;28;1347;-68
2021/03/27 09:29:49;;;;;;;;;;;;;;;18.33;69.86;102146.81;5090504;28;971;-65
2021/03/27 09:32:41;;;;;;;;;;;;;;;18.34;69.62;102151.19;5091602;28;1275;-66
2021/03/27 09:35:13;;;;;;;;;;;;;;;18.34;69.93;102156.47;5091384;28;1897;-65
2021/03/27 09:37:58;;;;;;;;;;;;;;;18.35;69.76;102157.34;5090765;28;1220;-64
2021/03/27 09:40:33;;;;;;;;;;;;;;;18.37;69.90;102151.09;5090748;28;913;-66
2021/03/27 09:43:15;;;;;;;;;;;;;;;18.34;69.70;102155.59;5090728;28;1268;-67
2021/03/27 09:45:47;;;;;;;;;;;;;;;18.40;69.93;102153.63;5091047;28;833;-66
2021/03/27 09:48:34;;;;;;;;;;;;;;;18.36;69.47;102154.63;5091492;28;1031;-67
2021/03/27 09:51:19;;;;;;;;;;;;;;;18.33;69.23;102156.53;5091975;28;1617;-68
2021/03/27 09:53:48;;;;;;;;;;;;;;;18.32;68.97;102155.69;5098606;28;1934;-68
2021/03/27 09:56:20;;;;;;;;;;;;;;;18.33;69.20;102148.63;5090327;27;1566;-67
2021/03/27 09:58:46;;;;;;;;;;;;;;;18.31;69.06;102148.66;5099762;28;1065;-67
2021/03/27 10:01:25;;;;;;;;;;;;;;;18.30;68.88;102148.72;5092029;28;1329;-65
2021/03/27 10:04:05;;;;;;;;;;;;;;;18.31;68.90;102148.66;5091815;28;1143;-66
2021/03/27 10:06:40;;;;;;;;;;;;;;;18.42;70.04;102150.97;5111362;27;1330;-65
2021/03/27 10:09:12;;;;;;;;;;;;;;;18.42;69.23;102153.59;5104576;27;984;-65
2021/03/27 10:11:40;;;;;;;;;;;;;;;18.37;69.27;102153.75;5108690;28;1268;-64
2021/03/27 10:14:20;;;;;;;;;;;;;;;18.35;69.31;102154.72;5091332;28;1961;-65
2021/03/27 10:17:04;;;;;;;;;;;;;;;18.35;69.34;102154.72;5078083;27;1323;-66
2021/03/27 10:19:34;;;;;;;;;;;;;;;18.36;69.09;102156.44;5128820;27;1199;-65
2021/03/27 10:22:19;;;;;;;;;;;;;;;18.35;69.21;102152.06;5123717;27;1233;-66
2021/03/27 10:25:03;;;;;;;;;;;;;;;18.52;69.36;102150.63;5106076;28;1681;-67
2021/03/27 10:27:53;;;;;;;;;;;;;;;18.53;68.93;102144.44;5108091;28;1299;-67
2021/03/27 10:30:31;;;;;;;;;;;;;;;18.50;68.59;102151.59;5087859;28;1118;-67
2021/03/27 10:33:04;;;;;;;;;;;;;;;18.48;68.55;102150.75;5108297;27;1311;-66
2021/03/27 10:35:50;;;;;;;;;;;;;;;18.49;68.39;102158.63;5086294;28;2114;-66
2021/03/27 10:38:27;;;;;;;;;;;;;;;18.44;68.26;102141.22;5112542;27;1135;-67
2021/03/27 10:41:12;;;;;;;;;;;;;;;18.51;68.21;102155.97;5107926;28;1275;-65
2021/03/27 10:43:56;;;;;;;;;;;;;;;18.51;68.17;102148.88;5107907;28;1095;-66
2021/03/27 10:46:25;;;;;;;;;;;;;;;18.52;68.07;102144.47;5109095;27;1338;-66
2021/03/27 10:49:01;;;;;;;;;;;;;;;18.52;68.30;102144.47;5125877;27;1508;-67
2021/03/27 10:51:46;;;;;;;;;;;;;;;18.55;68.10;102152.28;5077905;27;1563;-67
2021/03/27 10:54:19;;;;;;;;;;;;;;;18.53;68.13;102154.13;5117340;27;1982;-65
2021/03/27 10:57:03;;;;;;;;;;;;;;;18.63;68.93;102149.41;5108047;27;1577;-66
2021/03/27 10:59:30;;;;;;;;;;;;;;;18.60;68.42;102150.38;5108075;28;1457;-67
2021/03/27 11:02:11;;;;;;;;;;;;;;;18.61;68.19;102145.94;5113091;27;1223;-67
2021/03/27 11:04:56;;;;;;;;;;;;;;;18.59;68.03;102150.41;5127311;27;940;-67
2021/03/27 11:07:29;;;;;;;;;;;;;;;18.58;68.08;102146.91;5077822;28;1611;-66
2021/03/27 11:10:11;;;;;;;;;;;;;;;18.58;67.91;102146.91;5061089;28;1259;-66
2021/03/27 11:12:56;;;;;;;;;;;;;;;18.60;67.77;102150.38;5091386;27;1229;-65
2021/03/27 11:15:56;;;;;;;;;;;;;;;18.61;68.03;102144.16;5109499;27;1980;-67
2021/03/27 11:18:41;;;;;;;;;;;;;;;18.61;67.70;102138.88;5089178;27;1062;-67
2021/03/27 11:21:13;;;;;;;;;;;;;;;18.60;67.96;102139.81;5128598;27;1263;-67
2021/03/27 11:23:42;;;;;;;;;;;;;;;18.63;67.78;102130.91;5102004;28;1355;-67
2021/03/27 11:26:27;;;;;;;;;;;;;;;18.65;67.78;102142.28;5108191;28;1216;-67
2021/03/27 11:29:00;;;;;;;;;;;;;;;18.66;67.75;102149.28;5089082;28;1506;-68
2021/03/27 11:31:39;;;;;;;;;;;;;;;18.70;68.08;102135.03;5108335;27;1306;-69
2021/03/27 11:34:26;;;;;;;;;;;;;;;18.70;67.79;102135.03;5090592;28;1910;-69
2021/03/27 11:36:55;;;;;;;;;;;;;;;18.70;67.74;102148.25;5107242;28;1356;-68
2021/03/27 11:39:27;;;;;;;;;;;;;;;18.68;67.79;102140.41;5107672;28;1129;-67
2021/03/27 11:41:59;;;;;;;;;;;;;;;18.69;67.67;102139.50;5112640;27;1227;-68
2021/03/27 11:44:32;;;;;;;;;;;;;;;18.69;67.75;102131.56;5109837;27;1259;-67
2021/03/27 11:47:21;;;;;;;;;;;;;;;18.70;67.85;102133.28;5109301;27;1445;-67
2021/03/27 11:50:08;;;;;;;;;;;;;;;18.71;67.63;102129.72;5128438;27;836;-67
2021/03/27 11:52:47;;;;;;;;;;;;;;;18.73;67.96;102134.94;5109149;27;1512;-69
2021/03/27 11:55:40;;;;;;;;;;;;;;;18.76;68.89;102140.97;5128222;27;1905;-69
2021/03/27 11:59:41;;;;;;;;;;;;;;;18.75;67.54;102144.56;5096225;28;1351;-68
2021/03/27 12:01:27;;;;;;;;;;;;;;;18.77;67.62;102137.44;5107663;28;1256;-69
2021/03/27 12:04:12;;;;;;;;;;;;;;;18.76;67.54;102138.34;5128350;28;1128;-67
2021/03/27 12:06:39;;;;;;;;;;;;;;;18.78;67.59;102133.03;5127679;28;1267;-69
2021/03/27 12:09:24;;;;;;;;;;;;;;;18.78;67.32;102133.03;5128200;28;1071;-67
2021/03/27 12:11:55;;;;;;;;;;;;;;;18.77;67.23;102134.78;5109705;28;1239;-69
2021/03/27 12:14:33;;;;;;;;;;;;;;;18.78;67.23;102141.81;5128138;28;1930;-67
2021/03/27 12:16:59;;;;;;;;;;;;;;;18.79;67.36;102140.88;5112099;27;1264;-70
2021/03/27 12:19:37;;;;;;;;;;;;;;;18.79;67.38;102137.38;5113517;27;1278;-69
2021/03/27 12:22:10;;;;;;;;;;;;;;;18.78;67.50;102136.53;5096231;27;1663;-66
2021/03/27 12:24:51;;;;;;;;;;;;;;;18.79;67.22;102125.03;5087265;28;1317;-69
2021/03/27 12:27:28;;;;;;;;;;;;;;;18.79;67.23;102127.66;5087511;28;1537;-68
2021/03/27 12:30:02;;;;;;;;;;;;;;;18.77;67.23;102126.88;5092549;28;1592;-69
2021/03/27 12:32:28;;;;;;;;;;;;;;;18.80;67.68;102133.81;5107263;28;1321;-69
2021/03/27 12:35:00;;;;;;;;;;;;;;;18.80;67.30;102126.75;5090246;28;1914;-68
2021/03/27 12:37:38;;;;;;;;;;;;;;;18.79;67.05;102138.22;5093421;27;1531;-67
2021/03/27 12:40:22;;;;;;;;;;;;;;;18.81;67.44;102132.91;5103080;28;1279;-68
2021/03/27 12:42:48;;;;;;;;;;;;;;;18.79;67.14;102130.31;5086556;28;1596;-68
2021/03/27 12:45:24;;;;;;;;;;;;;;;18.78;67.41;102125.97;5070730;28;1060;-66
2021/03/27 12:47:58;;;;;;;;;;;;;;;18.76;66.96;102114.59;5097051;27;1312;-68
2021/03/27 12:50:30;;;;;;;;;;;;;;;18.77;67.07;102124.22;5112584;27;1495;-67
2021/03/27 12:52:57;;;;;;;;;;;;;;;18.76;66.99;102119.84;5130422;27;1338;-66
2021/03/27 12:55:24;;;;;;;;;;;;;;;18.77;66.81;102116.31;5130310;27;1913;-66
2021/03/27 12:58:23;;;;;;;;;;;;;;;18.77;66.91;102110.16;5114933;27;1374;-66
2021/03/27 13:00:53;;;;;;;;;;;;;;;18.77;66.85;102105.75;5048064;28;1334;-65
2021/03/27 13:03:39;;;;;;;;;;;;;;;18.76;66.82;102104.03;5105862;27;1135;-66
2021/03/27 13:06:46;;;;;;;;;;;;;;;18.78;66.83;102104.84;5131177;27;1252;-66
2021/03/27 13:09:12;;;;;;;;;;;;;;;18.77;66.87;102108.41;5101399;27;1182;-66
2021/03/27 13:11:57;;;;;;;;;;;;;;;18.75;66.93;102102.31;5129236;27;1231;-67
2021/03/27 13:14:45;;;;;;;;;;;;;;;18.77;66.91;102104.88;5110545;28;2012;-65
2021/03/27 13:17:24;;;;;;;;;;;;;;;18.82;67.12;102097.66;5116533;27;1322;-66
2021/03/27 13:20:14;;;;;;;;;;;;;;;18.77;67.12;102095.19;5130931;27;916;-66
2021/03/27 13:22:52;;;;;;;;;;;;;;;18.67;66.73;102088.50;5071592;28;1499;-66
2021/03/27 13:25:28;;;;;;;;;;;;;;;18.86;66.07;102083.44;5071052;28;1762;-67
2021/03/27 13:27:57;;;;;;;;;;;;;;;18.88;65.47;102085.09;5113796;27;1303;-67
2021/03/27 13:30:27;;;;;;;;;;;;;;;18.83;64.87;102083.56;5130906;27;797;-68
2021/03/27 13:33:10;;;;;;;;;;;;;;;18.88;65.06;102086.88;5114277;27;1260;-68
2021/03/27 13:35:56;;;;;;;;;;;;;;;18.87;64.70;102082.53;5131977;27;1996;-66
2021/03/27 13:38:24;;;;;;;;;;;;;;;18.91;64.21;102077.06;5111780;27;1210;-65
2021/03/27 13:40:54;;;;;;;;;;;;;;;18.85;64.04;102074.66;5099667;28;1330;-64